createdAt,value
2022-08-26T00:30:54.618Z,1004.75
2022-08-26T00:31:34.974Z,1004.76
2022-08-26T00:32:15.438Z,1004.77
2022-08-26T00:32:55.919Z,1004.78
2022-08-26T00:33:36.382Z,1004.74
2022-08-26T00:34:16.863Z,1004.81
2022-08-26T00:34:57.933Z,1004.8
2022-08-26T00:35:38.412Z,1004.78
2022-08-26T00:36:20.196Z,1004.8
2022-08-26T00:36:59.345Z,1004.84
2022-08-26T00:37:39.888Z,1004.82
2022-08-26T00:38:20.331Z,1004.89
2022-08-26T00:39:00.798Z,1004.87
2022-08-26T00:39:41.274Z,1004.85
2022-08-26T00:40:21.815Z,1004.81
2022-08-26T00:41:02.357Z,1004.81
2022-08-26T00:41:42.791Z,1004.84
2022-08-26T00:42:23.240Z,1004.79
2022-08-26T00:43:03.830Z,1004.85
2022-08-26T00:43:46.126Z,1004.82
2022-08-26T00:44:25.401Z,1004.78
2022-08-26T00:45:10.180Z,1004.77
2022-08-26T00:45:45.710Z,1004.83
2022-08-26T00:46:26.106Z,1004.83
2022-08-26T00:47:06.630Z,1004.83
2022-08-26T00:47:47.142Z,1004.77
2022-08-26T00:48:27.604Z,1004.86
2022-08-26T00:49:11.612Z,1004.79
2022-08-26T00:49:48.596Z,1004.74
2022-08-26T00:50:29.094Z,1004.78
2022-08-26T00:51:09.612Z,1004.78
2022-08-26T00:51:50.081Z,1004.79
2022-08-26T00:53:11.028Z,1004.83
2022-08-26T00:53:51.533Z,1004.78
2022-08-26T00:54:32.111Z,1004.78
2022-08-26T00:55:13.041Z,1004.77
2022-08-26T00:55:53.099Z,1004.82
2022-08-26T00:56:33.585Z,1004.74
2022-08-26T00:57:16.177Z,1004.81
2022-08-26T00:57:54.573Z,1004.8
2022-08-26T00:58:35.139Z,1004.85
2022-08-26T00:59:15.678Z,1004.82
2022-08-26T00:59:56.187Z,1004.85
2022-08-26T01:00:36.639Z,1004.87
2022-08-26T01:01:17.189Z,1004.88
2022-08-26T01:01:57.634Z,1004.89
2022-08-26T01:02:38.207Z,1004.89
2022-08-26T01:03:18.573Z,1004.82
2022-08-26T01:03:59.067Z,1004.87
2022-08-26T01:04:39.529Z,1004.84
2022-08-26T01:05:20.068Z,1004.91
2022-08-26T01:06:00.538Z,1004.86
2022-08-26T01:06:40.998Z,1004.9
2022-08-26T01:07:21.493Z,1004.88
2022-08-26T01:08:02.173Z,1004.87
2022-08-26T01:08:42.761Z,1004.87
2022-08-26T01:09:23.249Z,1004.83
2022-08-26T01:10:03.847Z,1004.86
2022-08-26T01:10:44.205Z,1004.87
2022-08-26T01:11:24.690Z,1004.88
2022-08-26T01:12:05.179Z,1004.8
2022-08-26T01:12:45.628Z,1004.88
2022-08-26T01:13:26.151Z,1004.88
2022-08-26T01:14:06.615Z,1004.88
2022-08-26T01:14:47.129Z,1004.91
2022-08-26T01:15:27.600Z,1004.86
2022-08-26T01:16:08.081Z,1004.89
2022-08-26T01:16:48.838Z,1004.91
2022-08-26T01:17:29.016Z,1004.91
2022-08-26T01:18:09.543Z,1004.93
2022-08-26T01:20:08.771Z,1004.93
2022-08-26T01:20:50.982Z,1004.94
2022-08-26T01:21:31.433Z,1004.94
2022-08-26T01:22:11.917Z,1004.98
2022-08-26T01:22:52.459Z,1004.96
2022-08-26T01:23:32.867Z,1005.01
2022-08-26T01:24:14.006Z,1004.93
2022-08-26T01:24:53.868Z,1004.99
2022-08-26T01:25:34.350Z,1005
2022-08-26T01:26:19.869Z,1004.99
2022-08-26T01:26:55.349Z,1005.04
2022-08-26T01:27:35.814Z,1004.97
2022-08-26T01:28:16.275Z,1005.03
2022-08-26T01:28:56.790Z,1005.05
2022-08-26T01:29:37.297Z,1004.99
2022-08-26T01:30:17.795Z,1005.02
2022-08-26T01:30:58.356Z,1005.05
2022-08-26T01:31:39.046Z,1005.06
2022-08-26T01:32:19.348Z,1005.09
2022-08-26T01:32:59.795Z,1005.04
2022-08-26T01:33:42.210Z,1005.07
2022-08-26T01:34:20.828Z,1005.06
2022-08-26T01:35:01.326Z,1005.1
2022-08-26T01:35:41.793Z,1005.1
2022-08-26T01:36:22.242Z,1005.1
2022-08-26T01:37:02.722Z,1005.11
2022-08-26T01:37:43.190Z,1005.1
2022-08-26T01:39:05.809Z,1005.13
2022-08-26T01:39:44.884Z,1005.15
2022-08-26T01:40:25.121Z,1005.16
2022-08-26T01:41:11.675Z,1005.13
2022-08-26T01:41:46.017Z,1005.08
2022-08-26T01:42:26.532Z,1005.14
2022-08-26T01:43:07.176Z,1005.18
2022-08-26T01:43:47.475Z,1005.17
2022-08-26T01:44:27.946Z,1005.17
2022-08-26T01:45:08.487Z,1005.15
2022-08-26T01:45:48.919Z,1005.16
2022-08-26T01:46:29.343Z,1005.19
2022-08-26T01:47:09.806Z,1005.19
2022-08-26T01:47:50.508Z,1005.21
2022-08-26T01:48:30.963Z,1005.21
2022-08-26T01:49:11.260Z,1005.22
2022-08-26T01:49:51.694Z,1005.24
2022-08-26T01:50:32.152Z,1005.18
2022-08-26T01:51:53.098Z,1005.23
2022-08-26T01:52:33.572Z,1005.25
2022-08-26T01:53:14.063Z,1005.26
2022-08-26T01:53:54.550Z,1005.28
2022-08-26T01:54:35.023Z,1005.26
2022-08-26T01:55:15.745Z,1005.27
2022-08-26T01:55:55.991Z,1005.26
2022-08-26T01:56:36.764Z,1005.29
2022-08-26T01:57:16.925Z,1005.24
2022-08-26T01:57:57.397Z,1005.24
2022-08-26T01:58:37.861Z,1005.28
2022-08-26T01:59:18.328Z,1005.3
2022-08-26T01:59:58.980Z,1005.27
2022-08-26T02:00:39.510Z,1005.32
2022-08-26T02:02:00.378Z,1005.28
2022-08-26T02:02:40.835Z,1005.3
2022-08-26T02:03:21.315Z,1005.3
2022-08-26T02:04:01.848Z,1005.31
2022-08-26T02:04:42.325Z,1005.35
2022-08-26T02:05:22.777Z,1005.3
2022-08-26T02:06:03.258Z,1005.35
2022-08-26T02:06:43.742Z,1005.33
2022-08-26T02:07:24.200Z,1005.3
2022-08-26T02:08:04.769Z,1005.29
2022-08-26T02:08:45.215Z,1005.3
2022-08-26T02:09:25.656Z,1005.27
2022-08-26T02:10:06.211Z,1005.32
2022-08-26T02:10:46.728Z,1005.24
2022-08-26T02:11:27.226Z,1005.34
2022-08-26T02:12:07.627Z,1005.34
2022-08-26T02:12:48.183Z,1005.37
2022-08-26T02:13:28.645Z,1005.37
2022-08-26T02:14:09.065Z,1005.39
2022-08-26T02:14:49.518Z,1005.36
2022-08-26T02:15:30.009Z,1005.39
2022-08-26T02:16:10.701Z,1005.39
2022-08-26T02:16:51.099Z,1005.38
2022-08-26T02:17:31.609Z,1005.35
2022-08-26T02:18:13.962Z,1005.35
2022-08-26T02:18:52.865Z,1005.4
2022-08-26T02:19:33.002Z,1005.37
2022-08-26T02:20:14.911Z,1005.42
2022-08-26T02:20:54.000Z,1005.4
2022-08-26T02:21:34.490Z,1005.42
2022-08-26T02:22:14.915Z,1005.42
2022-08-26T02:22:55.407Z,1005.41
2022-08-26T02:23:36.074Z,1005.42
2022-08-26T02:24:16.544Z,1005.46
2022-08-26T02:24:56.993Z,1005.46
2022-08-26T02:25:37.504Z,1005.46
2022-08-26T02:26:19.214Z,1005.48
2022-08-26T02:26:58.457Z,1005.51
2022-08-26T02:27:38.852Z,1005.54
2022-08-26T02:28:19.743Z,1005.51
2022-08-26T02:28:59.801Z,1005.54
2022-08-26T02:29:40.416Z,1005.57
2022-08-26T02:30:20.770Z,1005.56
2022-08-26T02:31:01.760Z,1005.62
2022-08-26T02:31:41.805Z,1005.68
2022-08-26T02:32:22.219Z,1005.65
2022-08-26T02:33:02.694Z,1005.69
2022-08-26T02:33:43.374Z,1005.67
2022-08-26T02:34:23.683Z,1005.72
2022-08-26T02:35:04.112Z,1005.69
2022-08-26T02:35:44.584Z,1005.69
2022-08-26T02:36:25.088Z,1005.68
2022-08-26T02:37:05.549Z,1005.66
2022-08-26T02:37:46.012Z,1005.72
2022-08-26T02:38:26.430Z,1005.64
2022-08-26T02:39:06.955Z,1005.61
2022-08-26T02:39:47.984Z,1005.64
2022-08-26T02:40:27.934Z,1005.61
2022-08-26T02:41:08.409Z,1005.64
2022-08-26T02:41:48.825Z,1005.59
2022-08-26T02:42:29.379Z,1005.67
2022-08-26T02:43:09.934Z,1005.62
2022-08-26T02:43:50.274Z,1005.63
2022-08-26T02:44:30.792Z,1005.6
2022-08-26T02:45:12.145Z,1005.63
2022-08-26T02:45:52.726Z,1005.61
2022-08-26T02:46:33.179Z,1005.58
2022-08-26T02:47:13.658Z,1005.63
2022-08-26T02:47:54.116Z,1005.63
2022-08-26T02:48:34.630Z,1005.64
2022-08-26T02:49:15.121Z,1005.64
2022-08-26T02:49:55.583Z,1005.59
2022-08-26T02:50:36.067Z,1005.62
2022-08-26T02:51:16.534Z,1005.58
2022-08-26T02:51:57.101Z,1005.63
2022-08-26T02:52:37.580Z,1005.64
2022-08-26T02:53:20.968Z,1005.62
2022-08-26T02:53:59.249Z,1005.62
2022-08-26T02:54:39.779Z,1005.6
2022-08-26T02:55:20.225Z,1005.61
2022-08-26T02:56:00.702Z,1005.64
2022-08-26T02:56:41.204Z,1005.6
2022-08-26T03:00:11.016Z,1005.56
2022-08-26T03:00:52.673Z,1005.56
2022-08-26T03:01:31.818Z,1005.5
2022-08-26T03:02:12.336Z,1005.5
2022-08-26T03:02:52.656Z,1005.51
2022-08-26T03:03:33.196Z,1005.49
2022-08-26T03:04:13.927Z,1005.47
2022-08-26T03:04:57.558Z,1005.44
2022-08-26T03:05:34.625Z,1005.43
2022-08-26T03:06:15.092Z,1005.46
2022-08-26T03:06:55.716Z,1005.46
2022-08-26T03:07:36.117Z,1005.47
2022-08-26T03:08:16.621Z,1005.36
2022-08-26T03:08:57.069Z,1005.43
2022-08-26T03:09:37.531Z,1005.42
2022-08-26T03:10:18.073Z,1005.4
2022-08-26T03:10:58.597Z,1005.38
2022-08-26T03:11:39.004Z,1005.39
2022-08-26T03:12:19.545Z,1005.41
2022-08-26T03:12:59.964Z,1005.39
2022-08-26T03:13:40.469Z,1005.38
2022-08-26T03:14:20.878Z,1005.34
2022-08-26T03:15:01.374Z,1005.37
2022-08-26T03:15:41.856Z,1005.42
2022-08-26T03:16:22.346Z,1005.36
2022-08-26T03:17:43.231Z,1005.44
2022-08-26T03:18:23.757Z,1005.38
2022-08-26T03:19:04.217Z,1005.38
2022-08-26T03:19:44.691Z,1005.38
2022-08-26T03:20:25.168Z,1005.4
2022-08-26T03:21:05.654Z,1005.41
2022-08-26T03:21:47.183Z,1005.39
2022-08-26T03:22:27.003Z,1005.43
2022-08-26T03:23:07.101Z,1005.41
2022-08-26T03:23:47.500Z,1005.43
2022-08-26T03:25:08.414Z,1005.4
2022-08-26T03:25:48.893Z,1005.44
2022-08-26T03:26:29.351Z,1005.43
2022-08-26T03:27:09.813Z,1005.43
2022-08-26T03:27:50.306Z,1005.45
2022-08-26T03:28:30.813Z,1005.43
2022-08-26T03:29:11.267Z,1005.44
2022-08-26T03:29:51.682Z,1005.48
2022-08-26T03:30:32.170Z,1005.45
2022-08-26T03:31:12.658Z,1005.45
2022-08-26T03:31:53.143Z,1005.47
2022-08-26T03:32:33.604Z,1005.52
2022-08-26T03:33:14.111Z,1005.47
2022-08-26T03:36:27.772Z,1005.46
2022-08-26T03:37:08.954Z,1005.45
2022-08-26T03:37:49.440Z,1005.51
2022-08-26T03:38:29.884Z,1005.5
2022-08-26T03:39:10.374Z,1005.51
2022-08-26T03:40:31.398Z,1005.52
2022-08-26T03:41:12.696Z,1005.54
2022-08-26T03:41:53.199Z,1005.45
2022-08-26T03:42:33.657Z,1005.48
2022-08-26T03:43:14.121Z,1005.49
2022-08-26T03:43:57.386Z,1005.52
2022-08-26T03:44:35.021Z,1005.53
2022-08-26T03:45:15.477Z,1005.52
2022-08-26T03:45:55.939Z,1005.49
2022-08-26T03:46:36.464Z,1005.5
2022-08-26T03:47:57.856Z,1005.53
2022-08-26T03:48:37.963Z,1005.54
2022-08-26T03:49:18.562Z,1005.51
2022-08-26T03:49:58.937Z,1005.51
2022-08-26T03:50:39.432Z,1005.54
2022-08-26T03:51:19.980Z,1005.52
2022-08-26T03:52:00.367Z,1005.51
2022-08-26T03:52:43.818Z,1005.55
2022-08-26T03:53:21.279Z,1005.54
2022-08-26T03:54:01.843Z,1005.56
2022-08-26T03:54:42.239Z,1005.5
2022-08-26T03:55:23.678Z,1005.54
2022-08-26T03:56:03.266Z,1005.53
2022-08-26T03:56:46.497Z,1005.57
2022-08-26T03:57:25.019Z,1005.55
2022-08-26T03:58:05.489Z,1005.56
2022-08-26T03:58:45.996Z,1005.55
2022-08-26T03:59:26.414Z,1005.55
2022-08-26T04:00:06.873Z,1005.52
2022-08-26T04:00:47.378Z,1005.52
2022-08-26T04:01:27.873Z,1005.51
2022-08-26T04:02:08.550Z,1005.49
2022-08-26T04:02:49.033Z,1005.54
2022-08-26T04:03:29.383Z,1005.5
2022-08-26T04:04:09.791Z,1005.49
2022-08-26T04:04:50.328Z,1005.53
2022-08-26T04:05:30.747Z,1005.52
2022-08-26T04:06:11.221Z,1005.52
2022-08-26T04:06:51.702Z,1005.52
2022-08-26T04:07:32.199Z,1005.51
2022-08-26T04:08:12.662Z,1005.51
2022-08-26T04:08:53.130Z,1005.48
2022-08-26T04:09:35.214Z,1005.52
2022-08-26T04:10:14.130Z,1005.55
2022-08-26T04:10:54.608Z,1005.51
2022-08-26T04:11:35.126Z,1005.53
2022-08-26T04:12:15.610Z,1005.53
2022-08-26T04:12:56.022Z,1005.51
2022-08-26T04:13:36.476Z,1005.56
2022-08-26T04:14:17.545Z,1005.53
2022-08-26T04:14:57.382Z,1005.52
2022-08-26T04:15:37.903Z,1005.56
2022-08-26T04:16:18.381Z,1005.51
2022-08-26T04:16:58.843Z,1005.47
2022-08-26T04:17:39.301Z,1005.52
2022-08-26T04:18:19.785Z,1005.55
2022-08-26T04:19:00.310Z,1005.49
2022-08-26T04:19:40.733Z,1005.51
2022-08-26T04:20:21.214Z,1005.53
2022-08-26T04:21:01.724Z,1005.52
2022-08-26T04:21:42.138Z,1005.49
2022-08-26T04:23:03.083Z,1005.51
2022-08-26T04:23:47.372Z,1005.51
2022-08-26T04:24:24.046Z,1005.49
2022-08-26T04:25:04.531Z,1005.52
2022-08-26T04:25:45.104Z,1005.53
2022-08-26T04:26:25.707Z,1005.49
2022-08-26T04:27:06.080Z,1005.5
2022-08-26T04:27:46.597Z,1005.51
2022-08-26T04:28:27.037Z,1005.5
2022-08-26T04:29:07.493Z,1005.52
2022-08-26T04:30:28.494Z,1005.5
2022-08-26T04:31:09.053Z,1005.51
2022-08-26T04:31:49.432Z,1005.5
2022-08-26T04:32:29.897Z,1005.47
2022-08-26T04:33:12.829Z,1005.47
2022-08-26T04:33:50.924Z,1005.5
2022-08-26T04:34:31.429Z,1005.47
2022-08-26T04:35:11.925Z,1005.48
2022-08-26T04:35:52.390Z,1005.51
2022-08-26T04:36:32.901Z,1005.51
2022-08-26T04:37:13.334Z,1005.5
2022-08-26T04:37:53.864Z,1005.52
2022-08-26T04:38:34.405Z,1005.51
2022-08-26T04:39:14.871Z,1005.5
2022-08-26T04:39:55.386Z,1005.5
2022-08-26T04:40:35.848Z,1005.58
2022-08-26T04:41:16.862Z,1005.54
2022-08-26T04:41:57.730Z,1005.56
2022-08-26T04:42:37.366Z,1005.6
2022-08-26T04:43:17.813Z,1005.58
2022-08-26T04:43:59.061Z,1005.58
2022-08-26T04:44:39.580Z,1005.65
2022-08-26T04:45:22.546Z,1005.58
2022-08-26T04:46:00.527Z,1005.62
2022-08-26T04:46:43.686Z,1005.54
2022-08-26T04:47:21.439Z,1005.6
2022-08-26T04:48:01.949Z,1005.62
2022-08-26T04:48:42.421Z,1005.64
2022-08-26T04:49:22.896Z,1005.63
2022-08-26T04:50:03.402Z,1005.63
2022-08-26T04:50:43.853Z,1005.64
2022-08-26T04:51:24.363Z,1005.64
2022-08-26T04:52:04.870Z,1005.59
2022-08-26T04:52:45.426Z,1005.6
2022-08-26T04:53:25.909Z,1005.64
2022-08-26T04:54:06.348Z,1005.64
2022-08-26T04:54:46.920Z,1005.66
2022-08-26T04:55:38.108Z,1005.63
2022-08-26T04:56:08.037Z,1005.67
2022-08-26T04:56:48.545Z,1005.65
2022-08-26T04:57:28.975Z,1005.6
2022-08-26T04:58:10.264Z,1005.62
2022-08-26T04:58:50.017Z,1005.6
2022-08-26T04:59:30.469Z,1005.63
2022-08-26T05:00:51.779Z,1005.64
2022-08-26T05:01:32.314Z,1005.68
2022-08-26T05:02:12.643Z,1005.68
2022-08-26T05:02:53.160Z,1005.65
2022-08-26T05:03:33.597Z,1005.7
2022-08-26T05:04:16.190Z,1005.72
2022-08-26T05:04:54.678Z,1005.7
2022-08-26T05:05:35.183Z,1005.75
2022-08-26T05:06:15.669Z,1005.75
2022-08-26T05:07:02.507Z,1005.72
2022-08-26T05:07:36.605Z,1005.74
2022-08-26T05:08:17.114Z,1005.77
2022-08-26T05:08:57.589Z,1005.76
2022-08-26T05:09:38.078Z,1005.8
2022-08-26T05:10:18.598Z,1005.76
2022-08-26T05:10:59.059Z,1005.79
2022-08-26T05:11:39.577Z,1005.77
2022-08-26T05:12:20.063Z,1005.74
2022-08-26T05:13:00.516Z,1005.75
2022-08-26T05:13:41.042Z,1005.69
2022-08-26T05:14:21.447Z,1005.69
2022-08-26T05:15:01.990Z,1005.7
2022-08-26T05:15:42.730Z,1005.68
2022-08-26T05:16:23.122Z,1005.68
2022-08-26T05:17:04.717Z,1005.78
2022-08-26T05:17:45.032Z,1005.74
2022-08-26T05:18:25.494Z,1005.75
2022-08-26T05:19:06.107Z,1005.75
2022-08-26T05:19:46.595Z,1005.76
2022-08-26T05:20:27.066Z,1005.79
2022-08-26T05:21:07.525Z,1005.75
2022-08-26T05:21:48.043Z,1005.76
2022-08-26T05:22:28.633Z,1005.75
2022-08-26T05:23:09.358Z,1005.78
2022-08-26T05:23:49.569Z,1005.76
2022-08-26T05:24:30.036Z,1005.77
2022-08-26T05:25:10.585Z,1005.77
2022-08-26T05:25:52.830Z,1005.75
2022-08-26T05:26:31.570Z,1005.73
2022-08-26T05:27:12.120Z,1005.74
2022-08-26T05:28:33.225Z,1005.74
2022-08-26T05:29:13.776Z,1005.73
2022-08-26T05:29:54.347Z,1005.76
2022-08-26T05:30:34.684Z,1005.78
2022-08-26T05:31:15.213Z,1005.73
2022-08-26T05:31:55.941Z,1005.78
2022-08-26T05:32:36.267Z,1005.78
2022-08-26T05:33:16.695Z,1005.75
2022-08-26T05:33:57.163Z,1005.74
2022-08-26T05:34:37.721Z,1005.77
2022-08-26T05:35:18.189Z,1005.75
2022-08-26T05:35:58.717Z,1005.77
2022-08-26T05:36:39.224Z,1005.81
2022-08-26T05:37:19.676Z,1005.76
2022-08-26T05:38:00.126Z,1005.75
2022-08-26T05:38:40.612Z,1005.76
2022-08-26T05:39:21.073Z,1005.78
2022-08-26T05:40:01.569Z,1005.82
2022-08-26T05:40:42.039Z,1005.78
2022-08-26T05:41:22.485Z,1005.81
2022-08-26T05:42:02.975Z,1005.78
2022-08-26T05:42:43.443Z,1005.78
2022-08-26T05:43:24.812Z,1005.77
2022-08-26T05:44:05.335Z,1005.78
2022-08-26T05:44:54.191Z,1005.81
2022-08-26T05:45:26.839Z,1005.79
2022-08-26T05:46:07.484Z,1005.78
2022-08-26T05:46:48.080Z,1005.8
2022-08-26T05:47:28.503Z,1005.8
2022-08-26T05:48:09.004Z,1005.81
2022-08-26T05:48:49.727Z,1005.76
2022-08-26T05:49:30.548Z,1005.79
2022-08-26T05:50:11.032Z,1005.79
2022-08-26T05:50:51.469Z,1005.81
2022-08-26T05:51:32.245Z,1005.78
2022-08-26T05:52:13.339Z,1005.8
2022-08-26T05:52:53.846Z,1005.8
2022-08-26T05:53:34.520Z,1005.82
2022-08-26T05:54:15.790Z,1005.8
2022-08-26T06:31:56.960Z,1005.91
2022-08-26T06:32:37.034Z,1005.93
2022-08-26T06:33:17.516Z,1005.92
2022-08-26T06:33:58.137Z,1006
2022-08-26T06:34:38.566Z,1005.97
2022-08-26T06:35:19.127Z,1005.94
2022-08-26T06:35:59.590Z,1005.95
2022-08-26T06:36:40.077Z,1005.99
2022-08-26T06:37:20.570Z,1006.02
2022-08-26T06:38:01.051Z,1006.01
2022-08-26T06:38:41.694Z,1006.03
2022-08-26T06:39:22.159Z,1006.08
2022-08-26T06:40:02.761Z,1006.05
2022-08-26T06:40:43.212Z,1006.02
2022-08-26T06:41:23.810Z,1006.03
2022-08-26T06:42:06.200Z,1006.06
2022-08-26T06:42:44.762Z,1006.06
2022-08-26T06:43:25.860Z,1006.04
2022-08-26T06:44:06.344Z,1006.1
2022-08-26T06:44:46.863Z,1006.13
2022-08-26T06:45:27.326Z,1006.12
2022-08-26T06:46:50.330Z,1006.12
2022-08-26T06:47:29.442Z,1006.1
2022-08-26T06:48:09.977Z,1006.09
2022-08-26T06:48:50.488Z,1006.1
2022-08-26T06:49:30.956Z,1006.08
2022-08-26T06:50:11.512Z,1006.08
2022-08-26T06:50:53.361Z,1006.13
2022-08-26T06:51:34.251Z,1006.11
2022-08-26T06:52:14.472Z,1006.09
2022-08-26T06:52:57.526Z,1006.08
2022-08-26T06:55:10.519Z,1006.12
2022-08-26T06:55:51.726Z,1006.12
2022-08-26T06:56:31.622Z,1006.09
2022-08-26T06:57:12.150Z,1006.1
2022-08-26T06:57:52.626Z,1006.11
2022-08-26T06:58:33.165Z,1006.03
2022-08-26T06:59:54.204Z,1006.12
2022-08-26T07:00:34.722Z,1006.09
2022-08-26T07:01:15.274Z,1006.08
2022-08-26T07:01:55.923Z,1006.1
2022-08-26T07:02:36.485Z,1006.15
2022-08-26T07:03:17.057Z,1006.12
2022-08-26T07:03:57.590Z,1006.13
2022-08-26T07:04:38.078Z,1006.1
2022-08-26T07:05:18.564Z,1006.14
2022-08-26T07:05:59.229Z,1006.09
2022-08-26T07:06:39.650Z,1006.17
2022-08-26T07:07:21.663Z,1006.16
2022-08-26T07:08:00.642Z,1006.15
2022-08-26T07:08:41.215Z,1006.2
2022-08-26T07:09:21.814Z,1006.16
2022-08-26T07:10:02.234Z,1006.19
2022-08-26T07:10:42.684Z,1006.19
2022-08-26T07:11:23.236Z,1006.17
2022-08-26T07:12:03.750Z,1006.14
2022-08-26T07:12:47.162Z,1006.14
2022-08-26T07:13:30.016Z,1006.14
2022-08-26T07:14:06.029Z,1006.16
2022-08-26T07:14:47.358Z,1006.19
2022-08-26T07:15:31.129Z,1006.12
2022-08-26T07:16:08.595Z,1006.12
2022-08-26T07:16:49.057Z,1006.15
2022-08-26T07:17:29.575Z,1006.12
2022-08-26T07:18:10.104Z,1006.17
2022-08-26T07:18:50.728Z,1006.17
2022-08-26T07:19:31.852Z,1006.15
2022-08-26T07:20:11.806Z,1006.13
2022-08-26T07:20:52.299Z,1006.13
2022-08-26T07:21:32.914Z,1006.15
2022-08-26T07:22:13.472Z,1006.15
2022-08-26T07:24:28.456Z,1006.16
2022-08-26T07:25:08.317Z,1006.17
2022-08-26T07:25:48.888Z,1006.15
2022-08-26T07:26:29.628Z,1006.18
2022-08-26T07:27:10.093Z,1006.2
2022-08-26T07:27:54.160Z,1006.21
2022-08-26T07:28:31.451Z,1006.18
2022-08-26T07:29:12.192Z,1006.18
2022-08-26T07:29:52.922Z,1006.21
2022-08-26T07:30:33.553Z,1006.2
2022-08-26T07:31:14.552Z,1006.22
2022-08-26T07:31:55.072Z,1006.23
2022-08-26T07:32:35.620Z,1006.24
2022-08-26T07:33:16.141Z,1006.24
2022-08-26T07:33:57.565Z,1006.22
2022-08-26T07:34:38.120Z,1006.28
2022-08-26T07:35:18.760Z,1006.29
2022-08-26T07:35:59.597Z,1006.32
2022-08-26T07:36:40.874Z,1006.3
2022-08-26T07:37:21.554Z,1006.32
2022-08-26T07:40:35.549Z,1006.36
2022-08-26T07:41:16.743Z,1006.32
2022-08-26T07:41:56.656Z,1006.33
2022-08-26T07:42:37.155Z,1006.37
2022-08-26T07:43:17.669Z,1006.38
2022-08-26T07:43:58.154Z,1006.36
2022-08-26T07:44:38.702Z,1006.36
2022-08-26T07:45:19.224Z,1006.37
2022-08-26T07:48:36.266Z,1006.37
2022-08-26T07:49:17.177Z,1006.42
2022-08-26T07:49:57.774Z,1006.39
2022-08-26T07:50:49.649Z,1006.42
2022-08-26T07:51:18.839Z,1006.42
2022-08-26T07:51:59.379Z,1006.4
2022-08-26T07:52:39.821Z,1006.36
2022-08-26T07:53:20.385Z,1006.39
2022-08-26T07:54:00.868Z,1006.4
2022-08-26T07:54:41.368Z,1006.47
2022-08-26T07:55:22.007Z,1006.42
2022-08-26T07:56:02.589Z,1006.45
2022-08-26T07:56:44.197Z,1006.5
2022-08-26T07:57:24.202Z,1006.41
2022-08-26T07:58:04.181Z,1006.44
2022-08-26T07:58:46.664Z,1006.46
2022-08-26T07:59:25.222Z,1006.5
2022-08-26T08:00:05.908Z,1006.44
2022-08-26T08:00:46.349Z,1006.42
2022-08-26T08:04:00.115Z,1006.52
2022-08-26T08:04:41.967Z,1006.47
2022-08-26T08:05:22.430Z,1006.47
2022-08-26T08:07:44.574Z,1006.46
2022-08-26T08:08:27.480Z,1006.43
2022-08-26T08:09:02.314Z,1006.41
2022-08-26T08:09:42.847Z,1006.46
2022-08-26T08:10:25.135Z,1006.42
2022-08-26T08:11:04.688Z,1006.46
2022-08-26T08:11:45.152Z,1006.45
2022-08-26T08:12:25.759Z,1006.45
2022-08-26T08:14:44.026Z,1006.47
2022-08-26T08:15:24.593Z,1006.46
2022-08-26T08:16:05.083Z,1006.49
2022-08-26T08:16:46.145Z,1006.46
2022-08-26T08:21:47.680Z,1006.43
2022-08-26T08:22:28.188Z,1006.46
2022-08-26T08:23:09.217Z,1006.42
2022-08-26T08:23:50.102Z,1006.43
2022-08-26T08:26:03.479Z,1006.44
2022-08-26T08:29:42.014Z,1006.49
2022-08-26T08:30:23.155Z,1006.29
2022-08-26T08:31:03.380Z,1006.5
2022-08-26T08:31:59.962Z,1006.45
2022-08-26T08:32:25.219Z,1006.48
2022-08-26T08:33:05.880Z,1006.5
2022-08-26T08:33:46.530Z,1006.47
2022-08-26T08:34:27.311Z,1006.51
2022-08-26T08:35:10.997Z,1006.51
2022-08-26T08:35:53.726Z,1006.47
2022-08-26T08:36:35.945Z,1006.49
2022-08-26T08:37:15.186Z,1006.53
2022-08-26T08:37:56.656Z,1006.5
2022-08-26T08:38:37.271Z,1006.48
2022-08-26T08:39:17.966Z,1006.5
2022-08-26T08:39:58.567Z,1006.51
2022-08-26T08:40:39.407Z,1006.47
2022-08-26T08:41:20.036Z,1006.46
2022-08-26T08:42:00.480Z,1006.51
2022-08-26T08:42:41.147Z,1006.48
2022-08-26T08:43:21.580Z,1006.47
2022-08-26T08:44:02.784Z,1006.49
2022-08-26T08:44:43.593Z,1006.48
2022-08-26T08:45:24.534Z,1006.48
2022-08-26T08:46:05.958Z,1006.49
2022-08-26T08:46:46.622Z,1006.53
2022-08-26T08:47:27.217Z,1006.53
2022-08-26T08:48:07.784Z,1006.53
2022-08-26T08:48:48.806Z,1006.49
2022-08-26T08:49:29.280Z,1006.49
2022-08-26T08:50:09.301Z,1006.52
2022-08-26T08:50:49.926Z,1006.51
2022-08-26T08:51:30.459Z,1006.54
2022-08-26T08:54:51.421Z,1006.52
2022-08-26T08:55:31.906Z,1006.58
2022-08-26T08:56:12.406Z,1006.54
2022-08-26T08:56:53.019Z,1006.52
2022-08-26T08:57:33.528Z,1006.54
2022-08-26T08:58:14.003Z,1006.57
2022-08-26T08:58:56.763Z,1006.54
2022-08-26T08:59:35.101Z,1006.56
2022-08-26T09:00:15.654Z,1006.55
2022-08-26T09:00:56.248Z,1006.57
2022-08-26T09:01:36.791Z,1006.58
2022-08-26T09:02:17.908Z,1006.56
2022-08-26T09:02:58.417Z,1006.59
2022-08-26T09:03:38.898Z,1006.61
2022-08-26T09:04:19.397Z,1006.57
2022-08-26T09:04:59.927Z,1006.58
2022-08-26T09:05:40.482Z,1006.58
2022-08-26T09:06:20.873Z,1006.58
2022-08-26T09:07:01.397Z,1006.6
2022-08-26T09:07:41.911Z,1006.58
2022-08-26T09:08:22.463Z,1006.62
2022-08-26T09:09:03.042Z,1006.61
2022-08-26T09:09:43.514Z,1006.62
2022-08-26T09:10:24.032Z,1006.63
2022-08-26T09:11:05.431Z,1006.59
2022-08-26T09:11:45.938Z,1006.62
2022-08-26T09:12:29.278Z,1006.66
2022-08-26T09:13:07.110Z,1006.59
2022-08-26T09:13:47.597Z,1006.65
2022-08-26T09:14:28.164Z,1006.59
2022-08-26T09:15:08.624Z,1006.63
2022-08-26T09:15:49.125Z,1006.62
2022-08-26T09:16:29.756Z,1006.61
2022-08-26T09:17:10.231Z,1006.59
2022-08-26T09:17:50.684Z,1006.59
2022-08-26T09:18:31.222Z,1006.59
2022-08-26T09:19:11.859Z,1006.62
2022-08-26T09:19:52.297Z,1006.63
2022-08-26T09:20:33.558Z,1006.63
2022-08-26T09:21:14.341Z,1006.6
2022-08-26T09:21:55.409Z,1006.66
2022-08-26T09:22:35.354Z,1006.63
2022-08-26T09:25:34.435Z,1006.67
2022-08-26T09:26:15.855Z,1006.65
2022-08-26T09:26:56.397Z,1006.72
2022-08-26T09:27:37.585Z,1006.68
2022-08-26T09:28:18.110Z,1006.7
2022-08-26T09:28:59.398Z,1006.7
2022-08-26T09:29:39.918Z,1006.73
2022-08-26T09:30:20.423Z,1006.75
2022-08-26T09:31:01.354Z,1006.75
2022-08-26T09:31:42.009Z,1006.73
2022-08-26T09:32:22.989Z,1006.74
2022-08-26T09:33:03.465Z,1006.73
2022-08-26T09:33:44.001Z,1006.73
2022-08-26T09:34:24.528Z,1006.78
2022-08-26T09:35:06.141Z,1006.74
2022-08-26T09:35:45.645Z,1006.74
2022-08-26T09:37:07.299Z,1006.79
2022-08-26T09:38:33.237Z,1006.74
2022-08-26T09:39:13.756Z,1006.74
2022-08-26T09:39:54.398Z,1006.79
2022-08-26T09:43:08.333Z,1006.78
2022-08-26T09:46:43.597Z,1006.77
2022-08-26T09:47:24.392Z,1006.76
2022-08-26T09:48:04.944Z,1006.75
2022-08-26T09:48:45.447Z,1006.76
2022-08-26T09:49:25.993Z,1006.74
2022-08-26T09:50:09.751Z,1006.74
2022-08-26T09:53:09.578Z,1006.75
2022-08-26T09:53:46.659Z,1006.75
2022-08-26T09:54:30.285Z,1006.75
2022-08-26T09:55:07.784Z,1006.76
2022-08-26T09:55:48.328Z,1006.79
2022-08-26T09:56:28.880Z,1006.75
2022-08-26T09:57:09.397Z,1006.73
2022-08-26T09:57:49.915Z,1006.73
2022-08-26T09:58:30.466Z,1006.75
2022-08-26T09:59:11.269Z,1006.7
2022-08-26T09:59:51.665Z,1006.73
2022-08-26T10:00:32.169Z,1006.7
2022-08-26T10:01:12.830Z,1006.72
2022-08-26T10:01:53.697Z,1006.72
2022-08-26T10:02:34.428Z,1006.7
2022-08-26T10:03:15.724Z,1006.73
2022-08-26T10:03:55.415Z,1006.66
2022-08-26T10:04:35.968Z,1006.77
2022-08-26T10:05:16.420Z,1006.7
2022-08-26T10:05:57.015Z,1006.72
2022-08-26T10:06:37.594Z,1006.73
2022-08-26T10:07:18.143Z,1006.67
2022-08-26T10:07:59.548Z,1006.69
2022-08-26T10:08:39.488Z,1006.7
2022-08-26T10:09:20.308Z,1006.69
2022-08-26T10:10:01.815Z,1006.7
2022-08-26T10:10:42.483Z,1006.68
2022-08-26T10:11:23.066Z,1006.69
2022-08-26T10:12:03.583Z,1006.7
2022-08-26T10:12:46.245Z,1006.71
2022-08-26T10:13:29.463Z,1006.67